Green River, UT

1:35 AM MDT on September 03, 2014 (GMT -0600)
MesoWest RMC Gauge Station UT US | Change Station
CLOSE
Current Station
Personal Weather Station
Location: Green River, UT
Elevation: 4192 ft
Nearby Weather Stations

Elev 4192 ft 38.80 °N, 109.19 °W | Updated 50 minutes ago

Clear
Clear
83 °F
Feels Like 80 °F
N
7
Wind Variable Wind from East
Gusts 0.0 mph

Today
High -- | Low -- °F
--% Chance of Precip.
Yesterday
High -- | Low -- °F
Precip. -- in
6:47 AM 7:44 PM
First Quarter, 59% visible
Pressure 29.66 in
Visibility 10.0 miles
Clouds Clear
Heat Index 80 °F
Dew Point 31 °F
Humidity 16%
Rainfall -999.00 in
Snow Depth Not available.
UV 0 out of 12
Pollen 9.20 out of 12
Air Quality Not available.
Flu Activity Not available.
METAR KCNY 030653Z AUTO 20005KT 10SM CLR 24/03 A2986 RMK AO2 SLP044 T02440028 403500150

More Conditions Fewer Conditions

Pressure 29.66 in
Visibility 10.0 miles
Clouds Clear
Heat Index 80 °F
Dew Point 31 °F
Humidity 16%
Rainfall -999.00 in
Snow Depth Not available.
UV 0 out of 12
Pollen 9.20 out of 12
Air Quality Not available.
Flu Activity Not available.
METAR KCNY 030653Z AUTO 20005KT 10SM CLR 24/03 A2986 RMK AO2 SLP044 T02440028 403500150

More Conditions Fewer Conditions

10-Day Weather Forecast

Almanac

Astronomy

Sep. 03, 2014 Rise Set
Actual Time 6:47 AM MDT 7:44 PM MDT
Civil Twilight 6:20 AM MDT 8:11 PM MDT
Nautical Twilight 5:48 AM MDT 8:43 PM MDT
Astronomical Twilight 5:14 AM MDT 9:17 PM MDT
Moon 3:28 PM MDT 12:46 AM MDT
Length of Visible Light 13h 50m
Length of Day
12h 56m
Tomorrow will be 2m 27s shorter.
First Quarter, 59% of the Moon is Illuminated
Today
First Quarter
Sep 8
Full
Sep 15
Last Quarter
Sep 24
New
Oct 1
First Quarter

Today's Extremes

State Highs State Lows

Community

WunderPhotos

Upload Photos

1,749,891 photos uploaded!

Nearby

Snow Depth

Station Depth Elevation
Buck Flat 0 in 9800 ft
Mosby Mountain 0 in 9500 ft
Black Flat-U.M. Creek 0 in 9400 ft
Gooseberry R.S. 0 in 7920 ft
Brown Duck 0 in 10600 ft

Earthquake Activity

City Distance Mag. Time & Date
No recent earthquake activity has been reported nearby.
Minimum magnitude displayed is 2.5.

Coastal Water Temperatures

Place Temperature
No Stations Reporting

Nearby Weather Stations